Airfield :
LOGIN :

Register | Disclaimer

   EN    FR    IT 

 










Legend :    VFR   Marginal VFR   IFR   Intensive IFR   Very Intensive IFR
Visi :
Ceiling :
>= 8 km
>= 3000ft
5 to 8 km
1000 to 3000 ft
1500m to 5 km
500 to 1000 ft
800 to 1500m
200 to 500 ft
< 800m
< 200 ft
Symbols :   Thunderstorms  Fog  Heavy snow  Heavy precipitations  Wind > 20 kt
SIGMETs :     Misc.  Thunderstorms  Icing  Turbulence  Mountain Waves  Volcanic Ashes






- Airport Elevation : 160 ft
- IATA code : FMO


EDDG - Münster Osnabrück Int.

CURRENT METAR :
  • 152320Z 19007KT 150V210 CAVOK 06/01 Q1007 NOSIG

EXPIRED METARs :
  • 152250Z 19007KT 160V220 CAVOK 06/01 Q1006 NOSIG
  • 152220Z 19008KT 160V220 CAVOK 06/01 Q1006 NOSIG
  • 152150Z 20008KT 160V230 CAVOK 06/01 Q1006 NOSIG
  • 152120Z 21009KT 180V240 CAVOK 07/01 Q1006 NOSIG
  • 152050Z 21012G22KT CAVOK 07/01 Q1006 NOSIG

TAF TAF EDDG
Valid from the 15 at 18:00 until the 16 at 18:00 UTC


151700Z 1518/1618 21012KT 9999 FEW030
BECMG 1522/1601 16006KT
TEMPO 1610/1618 4000 RA BKN012
PROB30
TEMPO 1613/1618 BKN008



MET'MAP, your aeronautical weather chart ! - Copyright ORBIFLY December 2007 - Disclaimer

ORBIFLY MET'MAP TEAM :

Programming & Development : Alexandra Zaïnal
Concept & original design : Baudouin d'Aumeries
Assistance for programming : Marc-Olivier Méhu
Technical & hardware support : Manuel Goepfert

Contact : metmap@orbifly.com




SOURCES & CREDITS :

   NOAA